Time;durP1;ratioP1;P1;durP2;ratioP2;P2;SDS_P1;SDS_P2;PMS_P1;PMS_P2;Temp;Humidity;BMP_temperature;BMP_pressure;BME280_temperature;BME280_humidity;BME280_pressure;Samples;Min_cycle;Max_cycle;Signal;HPM_P1;HPM_P2
2021/08/08 00:01:31;;;;;;;9.65;5.22;;;;;;;22.08;86.77;100375.13;1885796;76;21144;-63
2021/08/08 00:04:00;;;;;;;10.93;4.90;;;;;;;22.10;87.44;100382.53;1885821;76;21033;-63
2021/08/08 00:06:29;;;;;;;14.23;4.53;;;;;;;22.12;87.96;100391.27;1885810;76;21188;-63
2021/08/08 00:08:58;;;;;;;8.50;4.20;;;;;;;22.11;88.33;100397.14;1885963;76;21140;-63
2021/08/08 00:11:27;;;;;;;11.12;5.40;;;;;;;22.09;88.61;100396.41;1885701;76;21089;-63
2021/08/08 00:13:56;;;;;;;9.23;4.83;;;;;;;22.07;88.75;100397.55;1885833;76;21041;-63
2021/08/08 00:16:27;;;;;;;9.75;4.83;;;;;;;22.02;88.78;100402.48;1885934;76;21069;-63
2021/08/08 00:18:56;;;;;;;12.75;5.67;;;;;;;22.00;88.67;100407.15;1885837;76;21154;-63
2021/08/08 00:21:25;;;;;;;8.75;4.47;;;;;;;22.00;88.95;100413.84;1886051;76;21143;-63
2021/08/08 00:23:54;;;;;;;24.67;8.93;;;;;;;21.91;88.28;100409.70;1885945;76;21508;-64
2021/08/08 00:26:23;;;;;;;14.03;5.97;;;;;;;21.83;87.95;100404.19;1885780;76;21029;-63
2021/08/08 00:28:52;;;;;;;11.63;4.50;;;;;;;21.77;88.05;100402.92;1885797;76;21045;-63
2021/08/08 00:31:26;;;;;;;15.13;4.92;;;;;;;21.76;87.97;100409.75;1885775;76;21609;-63
2021/08/08 00:33:52;;;;;;;10.45;4.50;;;;;;;21.72;87.83;100411.87;1885116;76;21132;-63
2021/08/08 00:36:22;;;;;;;13.00;4.75;;;;;;;21.69;87.96;100416.66;1885942;76;21100;-63
2021/08/08 00:38:52;;;;;;;12.25;4.67;;;;;;;21.65;87.93;100409.89;1885755;76;21232;-64
2021/08/08 00:41:21;;;;;;;16.85;10.03;;;;;;;21.63;87.92;100415.89;1885179;75;21564;-63
2021/08/08 00:43:51;;;;;;;24.70;16.50;;;;;;;21.61;88.13;100408.48;1867784;77;21093;-63
2021/08/08 00:46:20;;;;;;;25.20;14.87;;;;;;;21.60;88.55;100419.70;1867907;77;21184;-63
2021/08/08 00:48:49;;;;;;;21.02;12.75;;;;;;;21.57;88.83;100419.47;1867897;77;21532;-63
2021/08/08 00:51:19;;;;;;;22.52;12.58;;;;;;;21.57;89.12;100422.14;1867411;76;21251;-63
2021/08/08 00:53:49;;;;;;;18.75;8.95;;;;;;;21.57;89.34;100422.14;1867809;77;21188;-63
2021/08/08 00:56:18;;;;;;;14.50;5.22;;;;;;;21.56;89.56;100424.48;1867811;76;21018;-63
2021/08/08 00:58:47;;;;;;;13.88;6.10;;;;;;;21.56;89.70;100430.31;1867773;76;21039;-63
2021/08/08 01:01:20;;;;;;;22.52;7.87;;;;;;;21.57;89.77;100426.66;1867773;76;21136;-63
2021/08/08 01:03:50;;;;;;;12.88;7.05;;;;;;;21.56;89.86;100429.84;1867733;76;21062;-63
2021/08/08 01:06:26;;;;;;;12.00;6.03;;;;;;;21.54;89.96;100422.45;1866499;77;21519;-63
2021/08/08 01:08:57;;;;;;;12.93;6.17;;;;;;;21.53;90.03;100421.23;1867770;77;21489;-63
2021/08/08 01:11:27;;;;;;;16.27;7.28;;;;;;;21.51;90.13;100418.69;1867809;76;21100;-63
2021/08/08 01:13:57;;;;;;;13.38;6.40;;;;;;;21.48;90.21;100418.95;1867853;77;21457;-64
2021/08/08 01:16:28;;;;;;;9.50;4.65;;;;;;;21.46;90.42;100413.40;1867867;77;21536;-63
2021/08/08 01:18:59;;;;;;;9.73;5.35;;;;;;;21.45;90.53;100411.22;1867873;77;21050;-63
2021/08/08 01:21:30;;;;;;;9.48;5.40;;;;;;;21.46;90.56;100412.90;1848499;77;21014;-63
2021/08/08 01:24:01;;;;;;;8.98;5.35;;;;;;;21.47;90.57;100416.41;1868055;76;21555;-63
2021/08/08 01:26:31;;;;;;;10.23;5.85;;;;;;;21.47;90.64;100421.30;1867712;77;21050;-65
2021/08/08 01:29:02;;;;;;;13.68;5.70;;;;;;;21.48;90.65;100420.80;1867903;76;21069;-64
2021/08/08 01:31:31;;;;;;;10.03;5.78;;;;;;;21.47;90.70;100422.64;1867926;77;21496;-64
2021/08/08 01:34:00;;;;;;;11.25;6.87;;;;;;;21.47;90.72;100425.32;1867761;76;21066;-63
2021/08/08 01:36:30;;;;;;;16.80;6.75;;;;;;;21.44;90.80;100425.55;1867873;77;21500;-63
2021/08/08 01:39:05;;;;;;;16.48;6.72;;;;;;;21.43;90.92;100441.25;1867792;77;21525;-64
2021/08/08 01:41:41;;;;;;;13.58;6.10;;;;;;;21.42;91.06;100452.97;1867850;77;21042;-64
2021/08/08 01:44:11;;;;;;;15.40;6.28;;;;;;;21.38;91.14;100452.39;1883203;76;21085;-63
2021/08/08 01:46:43;;;;;;;15.13;6.37;;;;;;;21.38;91.19;100452.89;1885450;76;21495;-64
2021/08/08 01:49:22;;;;;;;11.30;6.15;;;;;;;21.37;91.20;100453.36;1885229;76;21097;-64
2021/08/08 01:51:54;;;;;;;12.70;6.42;;;;;;;21.38;91.23;100462.27;1885369;76;21117;-64
2021/08/08 01:54:23;;;;;;;13.10;7.00;;;;;;;21.41;91.28;100468.67;1885709;76;21069;-63
2021/08/08 01:56:53;;;;;;;13.10;6.35;;;;;;;21.41;91.28;100467.33;1885186;76;21089;-64
2021/08/08 01:59:23;;;;;;;12.45;6.83;;;;;;;21.40;91.40;100471.01;1885794;76;21593;-63
2021/08/08 02:01:53;;;;;;;10.95;5.50;;;;;;;21.40;91.49;100475.87;1885729;76;21496;-64
2021/08/08 02:04:26;;;;;;;10.35;5.55;;;;;;;21.40;91.54;100477.70;1885844;76;21038;-64
2021/08/08 02:06:56;;;;;;;9.55;5.62;;;;;;;21.42;91.47;100485.11;1881450;76;21491;-63
2021/08/08 02:09:25;;;;;;;10.32;5.90;;;;;;;21.40;91.47;100496.45;1885951;76;21029;-63
2021/08/08 02:11:53;;;;;;;10.25;5.90;;;;;;;21.39;91.45;100500.97;1885860;76;21132;-63
2021/08/08 02:14:24;;;;;;;15.78;6.95;;;;;;;21.38;91.44;100500.60;1885536;76;21073;-64
2021/08/08 02:16:54;;;;;;;13.45;6.20;;;;;;;21.37;91.45;100505.59;1885749;76;21504;-63
2021/08/08 02:19:23;;;;;;;11.03;6.17;;;;;;;21.35;91.48;100505.37;1885939;76;20997;-63
2021/08/08 02:21:54;;;;;;;11.08;7.20;;;;;;;21.35;91.48;100500.86;1885356;76;21516;-63
2021/08/08 02:24:25;;;;;;;13.72;7.12;;;;;;;21.34;91.51;100504.54;1885468;76;21139;-64
2021/08/08 02:26:55;;;;;;;15.78;7.35;;;;;;;21.34;91.56;100505.88;1883606;76;21068;-64
2021/08/08 02:29:24;;;;;;;12.90;7.03;;;;;;;21.35;91.61;100506.72;1886055;76;21038;-64
2021/08/08 02:31:53;;;;;;;15.08;6.40;;;;;;;21.40;91.70;100499.97;1885754;76;21489;-64
2021/08/08 02:34:23;;;;;;;13.18;8.60;;;;;;;21.44;91.71;100496.53;1884095;76;21085;-63
2021/08/08 02:36:52;;;;;;;14.35;7.60;;;;;;;21.46;91.74;100491.91;1885746;76;21116;-63
2021/08/08 02:39:21;;;;;;;16.87;7.25;;;;;;;21.44;91.79;100484.98;1858778;76;21038;-63
2021/08/08 02:41:50;;;;;;;11.88;7.50;;;;;;;21.42;91.86;100493.14;1885699;76;21124;-63
2021/08/08 02:44:20;;;;;;;19.50;8.33;;;;;;;21.41;91.93;100490.09;1885654;76;21089;-63
2021/08/08 02:46:49;;;;;;;14.45;7.78;;;;;;;21.40;91.96;100496.45;1885761;76;21076;-63
2021/08/08 02:49:18;;;;;;;13.45;8.03;;;;;;;21.39;91.94;100498.77;1885847;76;21089;-63
2021/08/08 02:51:48;;;;;;;11.40;6.70;;;;;;;21.38;91.97;100514.49;1885732;76;21500;-63
2021/08/08 02:54:17;;;;;;;12.95;7.55;;;;;;;21.37;91.98;100510.11;1885635;76;21242;-63
2021/08/08 02:56:47;;;;;;;11.75;7.40;;;;;;;21.38;91.97;100517.17;1885923;76;21069;-63
2021/08/08 02:59:16;;;;;;;12.60;6.75;;;;;;;21.37;91.92;100516.80;1885794;76;21135;-63
2021/08/08 03:01:47;;;;;;;10.75;6.50;;;;;;;21.38;91.93;100523.37;1885368;76;21045;-63
2021/08/08 03:04:16;;;;;;;15.90;7.70;;;;;;;21.37;91.93;100520.81;1885730;76;21053;-63
2021/08/08 03:06:48;;;;;;;13.83;8.00;;;;;;;21.39;91.95;100517.51;1885861;76;21101;-64
2021/08/08 03:09:18;;;;;;;14.38;8.33;;;;;;;21.39;91.95;100519.72;1885565;76;21073;-63
2021/08/08 03:11:47;;;;;;;12.55;8.10;;;;;;;21.40;91.99;100520.55;1885878;76;21033;-63
2021/08/08 03:14:19;;;;;;;12.25;7.83;;;;;;;21.43;92.01;100517.59;1885700;76;21081;-64
2021/08/08 03:16:48;;;;;;;11.33;6.55;;;;;;;21.47;92.02;100519.07;1885951;76;21133;-62
2021/08/08 03:19:19;;;;;;;14.35;8.25;;;;;;;21.47;91.99;100517.73;1885567;76;21077;-63
2021/08/08 03:21:48;;;;;;;10.53;7.55;;;;;;;21.53;92.00;100515.83;1885832;76;21527;-63
2021/08/08 03:24:17;;;;;;;12.00;7.20;;;;;;;21.58;92.02;100513.59;1885933;76;21550;-63
2021/08/08 03:26:46;;;;;;;11.28;6.65;;;;;;;21.58;92.01;100509.58;1885941;76;21524;-63
2021/08/08 03:29:16;;;;;;;13.15;6.80;;;;;;;21.58;91.96;100513.59;1885818;76;21548;-63
2021/08/08 03:31:46;;;;;;;9.83;5.35;;;;;;;21.59;91.93;100517.95;1885724;76;21587;-63
2021/08/08 03:34:15;;;;;;;11.45;5.65;;;;;;;21.60;91.91;100521.50;1885795;76;21602;-63
2021/08/08 03:36:44;;;;;;;9.05;6.75;;;;;;;21.64;91.85;100519.41;1886007;76;21029;-63
2021/08/08 03:39:13;;;;;;;12.07;5.70;;;;;;;21.67;91.78;100511.06;1885822;76;21135;-63
2021/08/08 03:41:44;;;;;;;9.68;6.22;;;;;;;21.68;91.75;100513.61;1885925;76;21516;-63
2021/08/08 03:44:13;;;;;;;11.85;6.47;;;;;;;21.69;91.67;100517.13;1885493;76;21094;-63
2021/08/08 03:46:42;;;;;;;9.45;6.12;;;;;;;21.70;91.59;100519.68;1885800;76;21172;-63
2021/08/08 03:49:12;;;;;;;11.22;7.03;;;;;;;21.72;91.56;100517.70;1885866;76;21137;-63
2021/08/08 03:51:41;;;;;;;11.45;5.15;;;;;;;21.77;91.57;100517.31;1885818;76;21172;-63
2021/08/08 03:54:09;;;;;;;8.98;5.05;;;;;;;21.82;91.53;100518.22;1885864;76;21852;-63
2021/08/08 03:56:38;;;;;;;6.67;4.80;;;;;;;21.88;91.46;100521.71;1885733;76;21069;-63
2021/08/08 03:59:08;;;;;;;8.18;5.05;;;;;;;21.92;91.36;100513.23;1885825;76;21575;-63
2021/08/08 04:01:38;;;;;;;10.15;5.35;;;;;;;21.99;91.23;100521.58;1885986;76;21070;-63
2021/08/08 04:04:08;;;;;;;9.63;5.37;;;;;;;22.06;91.15;100520.51;1885936;76;21118;-63
2021/08/08 04:06:37;;;;;;;8.65;5.45;;;;;;;22.15;91.04;100523.69;1885811;76;21520;-63
2021/08/08 04:09:06;;;;;;;9.70;5.75;;;;;;;22.26;90.93;100528.98;1885725;76;21105;-63
2021/08/08 04:11:34;;;;;;;8.70;5.70;;;;;;;22.37;90.81;100525.28;1885830;76;21075;-63
2021/08/08 04:14:04;;;;;;;9.45;6.30;;;;;;;22.49;90.72;100524.16;1885887;76;21638;-63
2021/08/08 04:16:33;;;;;;;12.58;6.12;;;;;;;22.65;90.73;100527.61;1885789;76;21062;-63
2021/08/08 04:19:02;;;;;;;17.12;9.58;;;;;;;22.80;90.77;100517.77;1885916;76;21074;-63
2021/08/08 04:21:32;;;;;;;27.65;16.12;;;;;;;22.97;90.80;100518.35;1885753;76;21572;-63
2021/08/08 04:24:01;;;;;;;43.45;23.42;;;;;;;23.13;90.83;100509.72;1885787;76;21062;-63
2021/08/08 04:26:29;;;;;;;14.95;8.03;;;;;;;23.27;90.89;100517.27;1885804;76;21042;-63
2021/08/08 04:28:59;;;;;;;22.95;13.22;;;;;;;23.41;90.85;100515.95;1886067;76;21498;-63
2021/08/08 04:31:27;;;;;;;25.43;14.30;;;;;;;23.55;90.81;100519.13;1885828;76;21540;-63
2021/08/08 04:33:57;;;;;;;18.35;9.63;;;;;;;23.66;90.74;100520.27;1885802;76;21135;-63
2021/08/08 04:36:26;;;;;;;16.12;8.90;;;;;;;23.77;90.64;100522.75;1885742;76;21152;-63
2021/08/08 04:38:55;;;;;;;12.18;7.35;;;;;;;23.89;90.48;100524.27;1885862;76;21045;-63
2021/08/08 04:41:23;;;;;;;11.40;6.33;;;;;;;24.05;90.23;100525.42;1885804;76;21077;-63
2021/08/08 04:43:52;;;;;;;8.98;6.37;;;;;;;24.24;89.99;100530.67;1885811;76;21140;-63
2021/08/08 04:46:21;;;;;;;9.60;6.50;;;;;;;24.41;89.69;100536.20;1870994;76;21529;-63
2021/08/08 04:48:50;;;;;;;12.50;6.65;;;;;;;24.57;89.37;100539.06;1867675;77;21844;-63
2021/08/08 04:51:19;;;;;;;15.88;7.47;;;;;;;24.89;88.98;100540.30;1867794;77;21074;-63
2021/08/08 04:53:47;;;;;;;24.45;14.15;;;;;;;25.21;88.57;100542.84;1867876;77;21128;-63
2021/08/08 04:56:16;;;;;;;23.52;14.35;;;;;;;25.47;88.08;100546.03;1867865;77;21058;-63
2021/08/08 04:58:45;;;;;;;16.17;11.53;;;;;;;25.78;87.82;100549.02;1867782;77;21086;-63
2021/08/08 05:01:14;;;;;;;21.75;15.80;;;;;;;26.13;87.10;100550.65;1848496;77;21457;-63
2021/08/08 05:03:43;;;;;;;13.13;8.73;;;;;;;26.45;86.25;100557.11;1867939;77;21062;-62
2021/08/08 05:06:12;;;;;;;8.50;6.40;;;;;;;26.85;85.64;100560.83;1867762;77;21086;-62
2021/08/08 05:08:41;;;;;;;9.53;6.00;;;;;;;27.23;84.80;100555.70;1867818;77;21125;-62
2021/08/08 05:11:11;;;;;;;9.85;6.45;;;;;;;27.61;84.13;100551.02;1867916;77;21547;-62
2021/08/08 05:13:40;;;;;;;8.38;4.75;;;;;;;28.05;83.04;100545.94;1867571;76;21080;-63
2021/08/08 05:16:09;;;;;;;8.00;4.12;;;;;;;28.45;82.09;100546.64;1867751;77;21099;-62
2021/08/08 05:18:38;;;;;;;10.85;5.20;;;;;;;28.76;81.45;100559.28;1867778;77;21038;-62
2021/08/08 05:21:06;;;;;;;10.48;4.72;;;;;;;29.12;80.50;100568.05;1867860;77;21038;-62
2021/08/08 05:23:36;;;;;;;8.50;4.45;;;;;;;29.43;79.88;100561.12;1867736;77;21050;-62
2021/08/08 05:28:55;;;;;;;10.78;4.75;;;;;;;29.72;77.61;100562.66;1805382;79;21564;-62
2021/08/08 05:31:23;;;;;;;9.05;4.45;;;;;;;29.81;78.81;100569.17;1805319;79;21211;-62
2021/08/08 05:33:52;;;;;;;8.05;3.42;;;;;;;29.91;77.48;100572.93;1805293;79;21082;-61
2021/08/08 05:36:21;;;;;;;8.78;4.45;;;;;;;29.97;75.94;100583.04;1805420;79;21156;-61
2021/08/08 05:38:50;;;;;;;6.35;4.47;;;;;;;29.96;75.37;100592.20;1805278;79;21105;-62
2021/08/08 05:41:19;;;;;;;8.30;4.30;;;;;;;30.10;75.53;100585.56;1805378;79;21520;-61
2021/08/08 05:43:48;;;;;;;7.25;4.40;;;;;;;30.03;73.12;100589.05;1805347;79;21137;-61
2021/08/08 05:46:16;;;;;;;7.42;4.30;;;;;;;30.13;74.40;100594.69;1805496;79;21073;-61
2021/08/08 05:48:45;;;;;;;7.37;4.70;;;;;;;30.24;71.83;100592.83;1805401;79;21556;-61
2021/08/08 05:51:14;;;;;;;10.25;4.00;;;;;;;30.33;71.92;100587.62;1805238;79;21085;-63
2021/08/08 05:53:43;;;;;;;6.40;3.95;;;;;;;30.50;71.88;100585.48;1805289;79;21042;-61
2021/08/08 05:56:12;;;;;;;5.70;3.50;;;;;;;30.95;73.92;100577.10;1805480;79;21073;-61
2021/08/08 05:58:42;;;;;;;6.85;3.00;;;;;;;31.21;71.87;100579.69;1805343;79;21089;-61
2021/08/08 06:01:11;;;;;;;6.72;2.98;;;;;;;31.39;69.98;100578.65;1805432;79;21144;-62
2021/08/08 06:03:40;;;;;;;6.08;3.08;;;;;;;31.36;69.15;100580.43;1804857;79;21156;-66
2021/08/08 06:06:12;;;;;;;4.47;3.00;;;;;;;31.41;68.82;100577.09;1801771;79;21189;-71
2021/08/08 06:08:41;;;;;;;5.85;3.12;;;;;;;31.65;69.78;100573.05;1784961;80;21166;-70
2021/08/08 06:11:10;;;;;;;4.90;3.47;;;;;;;32.09;70.09;100581.30;1788016;79;21090;-70
2021/08/08 06:13:39;;;;;;;4.97;3.35;;;;;;;32.31;68.65;100582.84;1801733;79;21054;-69
2021/08/08 06:16:07;;;;;;;7.58;3.17;;;;;;;32.60;69.15;100586.24;1805101;79;21152;-65
2021/08/08 06:18:36;;;;;;;4.75;3.22;;;;;;;32.86;67.93;100577.75;1805113;79;21399;-67
2021/08/08 06:21:05;;;;;;;5.40;3.65;;;;;;;33.01;65.50;100582.98;1805223;79;21586;-63
2021/08/08 06:23:36;;;;;;;5.22;3.27;;;;;;;33.19;65.12;100576.91;1806473;78;21089;-64
2021/08/08 06:26:04;;;;;;;5.62;3.62;;;;;;;33.41;64.96;100581.04;1805128;79;21140;-70
2021/08/08 06:28:34;;;;;;;3.42;3.12;;;;;;;33.52;63.56;100578.17;1805263;79;21172;-70
2021/08/08 06:31:02;;;;;;;4.15;3.22;;;;;;;33.47;59.97;100576.61;1811433;78;21143;-68
2021/08/08 06:33:31;;;;;;;5.20;4.00;;;;;;;33.43;63.42;100583.02;1835093;78;21151;-70
2021/08/08 06:36:00;;;;;;;6.50;3.62;;;;;;;33.30;62.55;100580.88;1827485;77;21606;-64
2021/08/08 06:38:29;;;;;;;5.70;3.60;;;;;;;33.21;60.80;100584.34;1797047;80;21106;-67
2021/08/08 06:40:58;;;;;;;7.25;2.95;;;;;;;32.87;60.56;100595.80;1798500;79;21164;-72
2021/08/08 06:43:26;;;;;;;5.20;3.75;;;;;;;32.42;62.76;100602.33;1805134;79;21034;-71
2021/08/08 06:45:55;;;;;;;4.53;3.37;;;;;;;32.09;63.51;100619.43;1805211;79;21482;-66
2021/08/08 06:48:24;;;;;;;9.05;3.20;;;;;;;31.68;62.20;100620.28;1805371;79;21152;-68
2021/08/08 06:50:55;;;;;;;6.40;3.45;;;;;;;31.49;62.80;100626.78;1805169;79;21255;-67
2021/08/08 06:53:23;;;;;;;7.62;3.42;;;;;;;31.35;64.26;100615.45;1805360;79;21057;-69
2021/08/08 06:55:53;;;;;;;5.50;3.77;;;;;;;31.67;64.96;100609.06;1809417;78;21847;-70
2021/08/08 06:58:22;;;;;;;10.20;3.70;;;;;;;31.82;64.43;100588.53;1835093;78;21526;-70
2021/08/08 07:00:51;;;;;;;4.47;3.20;;;;;;;32.01;62.44;100578.75;1829754;78;21240;-65
2021/08/08 07:03:20;;;;;;;9.15;3.37;;;;;;;32.24;64.02;100576.54;1797224;80;21616;-64
2021/08/08 07:05:49;;;;;;;6.10;3.45;;;;;;;32.46;61.97;100574.98;1797078;80;21118;-64
2021/08/08 07:08:18;;;;;;;4.42;3.17;;;;;;;32.79;63.39;100570.09;1797053;80;21098;-65
2021/08/08 07:10:47;;;;;;;8.13;2.60;;;;;;;33.01;62.28;100572.06;1797096;79;21094;-64
2021/08/08 07:13:16;;;;;;;5.50;2.70;;;;;;;32.73;60.47;100583.22;1797372;80;21603;-65
2021/08/08 07:15:46;;;;;;;6.33;3.02;;;;;;;32.44;61.48;100586.08;1797159;80;21082;-64
2021/08/08 07:18:15;;;;;;;7.22;3.08;;;;;;;32.44;59.19;100596.98;1797130;80;21078;-64
2021/08/08 07:20:44;;;;;;;7.15;3.08;;;;;;;32.56;58.49;100619.02;1797180;80;21458;-64
2021/08/08 07:23:13;;;;;;;9.28;3.30;;;;;;;32.59;57.05;100647.27;1796999;79;21558;-64
2021/08/08 07:25:42;;;;;;;7.37;3.20;;;;;;;32.52;58.71;100646.38;1797065;80;21145;-63
2021/08/08 07:28:11;;;;;;;5.10;2.15;;;;;;;32.75;59.59;100639.72;1797017;80;21168;-63
2021/08/08 07:30:39;;;;;;;6.58;3.30;;;;;;;33.02;58.86;100644.14;1796322;79;21561;-73
2021/08/08 07:33:08;;;;;;;22.73;3.85;;;;;;;32.94;57.64;100638.88;1797024;80;21180;-69
2021/08/08 07:35:40;;;;;;;4.87;3.55;;;;;;;33.05;58.01;100630.09;1796832;80;21095;-70
2021/08/08 07:38:09;;;;;;;6.83;2.92;;;;;;;32.95;57.43;100617.92;1797126;79;21130;-60
2021/08/08 07:40:38;;;;;;;5.40;2.87;;;;;;;32.79;57.84;100610.99;1797046;80;21087;-60
2021/08/08 07:43:08;;;;;;;9.33;3.37;;;;;;;32.52;55.92;100609.59;1797071;80;21498;-59
2021/08/08 07:45:36;;;;;;;7.37;4.00;;;;;;;32.35;60.01;100599.58;1797023;80;21082;-60
2021/08/08 07:48:06;;;;;;;5.72;3.33;;;;;;;32.12;60.95;100594.52;1796970;80;21039;-60
2021/08/08 07:50:35;;;;;;;6.47;3.30;;;;;;;31.82;61.64;100588.00;1797144;80;21047;-60
2021/08/08 07:53:05;;;;;;;8.68;3.70;;;;;;;31.41;60.49;100577.95;1797164;80;21063;-60
2021/08/08 07:55:35;;;;;;;5.45;3.67;;;;;;;30.96;60.72;100584.23;1797261;79;21062;-60
2021/08/08 07:58:04;;;;;;;6.62;3.20;;;;;;;30.65;63.42;100587.30;1797278;80;21608;-60
2021/08/08 08:00:33;;;;;;;5.45;2.50;;;;;;;30.41;64.20;100594.80;1797173;80;21055;-60
2021/08/08 08:03:03;;;;;;;5.10;2.92;;;;;;;30.12;62.54;100596.58;1797268;80;21595;-60
2021/08/08 08:05:34;;;;;;;4.58;2.60;;;;;;;29.93;64.54;100598.53;1797911;78;21094;-60
2021/08/08 08:08:03;;;;;;;3.83;2.37;;;;;;;29.83;65.49;100605.63;1797296;80;21505;-60
2021/08/08 08:10:32;;;;;;;9.25;3.45;;;;;;;29.87;66.09;100615.06;1797168;80;21513;-60
2021/08/08 08:13:02;;;;;;;6.70;2.70;;;;;;;30.05;66.33;100610.59;1797043;80;21509;-60
2021/08/08 08:15:32;;;;;;;5.97;2.83;;;;;;;30.19;64.06;100607.48;1797243;80;21067;-60
2021/08/08 08:18:01;;;;;;;4.37;2.52;;;;;;;30.06;66.19;100605.47;1797278;80;21091;-60
2021/08/08 08:20:30;;;;;;;8.63;4.37;;;;;;;29.76;67.99;100591.12;1797125;80;21130;-60
2021/08/08 08:22:59;;;;;;;5.78;2.77;;;;;;;29.44;69.24;100599.44;1797258;80;21059;-60
2021/08/08 08:25:28;;;;;;;6.87;3.95;;;;;;;29.03;68.23;100621.53;1797094;80;21083;-62
2021/08/08 08:27:57;;;;;;;7.37;3.25;;;;;;;28.71;70.34;100619.10;1797184;80;21059;-59
2021/08/08 08:30:26;;;;;;;5.53;2.90;;;;;;;28.30;68.93;100621.04;1817012;79;21105;-60
2021/08/08 08:32:55;;;;;;;6.03;3.12;;;;;;;27.95;70.97;100634.60;1822158;79;21089;-60
2021/08/08 08:35:23;;;;;;;4.25;2.77;;;;;;;27.73;71.90;100643.78;1822224;79;21049;-60
2021/08/08 08:37:52;;;;;;;5.55;3.20;;;;;;;27.47;71.63;100652.66;1822139;79;21179;-61
2021/08/08 08:40:21;;;;;;;4.65;3.10;;;;;;;27.23;71.82;100658.41;1822056;79;21207;-60
2021/08/08 08:42:51;;;;;;;6.42;3.52;;;;;;;26.98;72.09;100651.33;1822116;79;21590;-60
2021/08/08 08:45:21;;;;;;;7.47;3.47;;;;;;;26.83;73.46;100635.79;1822391;79;21080;-60
2021/08/08 08:47:50;;;;;;;6.58;3.30;;;;;;;26.74;74.41;100632.27;1822305;79;21385;-60
2021/08/08 08:50:22;;;;;;;7.45;2.95;;;;;;;26.68;75.02;100632.91;1822234;79;21131;-60
2021/08/08 08:52:53;;;;;;;6.28;3.00;;;;;;;26.59;75.48;100639.29;1822329;79;21159;-60
2021/08/08 08:55:23;;;;;;;7.42;3.40;;;;;;;26.62;75.75;100647.09;1822178;79;21196;-60
2021/08/08 08:57:53;;;;;;;6.15;3.20;;;;;;;26.59;74.64;100648.22;1822244;79;21540;-60
2021/08/08 09:00:26;;;;;;;8.30;3.33;;;;;;;26.56;75.97;100658.03;1822215;79;21590;-60
2021/08/08 09:02:53;;;;;;;12.55;3.70;;;;;;;26.56;76.39;100660.73;1822315;77;21172;-60
2021/08/08 09:05:22;;;;;;;6.95;3.72;;;;;;;26.64;76.54;100667.19;1822092;79;21635;-60
2021/08/08 09:07:51;;;;;;;7.67;3.72;;;;;;;26.65;76.04;100669.73;1822192;79;21090;-60
2021/08/08 09:10:22;;;;;;;8.98;3.50;;;;;;;26.71;76.62;100669.56;1822163;79;21124;-60
2021/08/08 09:12:59;;;;;;;6.95;3.27;;;;;;;26.80;76.10;100670.39;1822269;79;21121;-60
2021/08/08 09:15:34;;;;;;;7.17;3.67;;;;;;;26.83;75.68;100669.55;1822145;79;21110;-61
2021/08/08 09:18:18;;;;;;;6.37;3.77;;;;;;;26.93;76.17;100662.66;1822095;79;21571;-60
2021/08/08 09:20:50;;;;;;;10.20;3.95;;;;;;;27.13;76.07;100669.89;1825386;77;21091;-60
2021/08/08 09:23:19;;;;;;;7.42;3.60;;;;;;;27.28;75.81;100672.30;1822127;79;21152;-60
2021/08/08 09:25:55;;;;;;;7.97;4.60;;;;;;;27.45;75.66;100665.52;1822097;79;21126;-60
2021/08/08 09:28:30;;;;;;;8.85;4.20;;;;;;;27.54;75.05;100661.25;1822112;79;21110;-60
2021/08/08 09:31:00;;;;;;;7.50;3.87;;;;;;;27.59;74.43;100665.30;1796816;79;21179;-59
2021/08/08 09:33:33;;;;;;;8.20;4.08;;;;;;;27.62;74.12;100665.80;1788492;80;21144;-59
2021/08/08 09:36:02;;;;;;;10.30;5.22;;;;;;;27.73;74.70;100670.83;1788525;79;21061;-60
2021/08/08 09:38:31;;;;;;;10.50;5.62;;;;;;;27.83;73.62;100677.90;1788379;80;21586;-59
2021/08/08 09:41:01;;;;;;;8.50;4.45;;;;;;;27.91;73.18;100669.80;1788552;80;21109;-59
2021/08/08 09:43:31;;;;;;;10.72;4.70;;;;;;;28.18;73.47;100671.70;1788595;80;21197;-59
2021/08/08 09:45:59;;;;;;;9.68;4.12;;;;;;;28.52;73.13;100671.86;1788494;80;21061;-59
2021/08/08 09:48:40;;;;;;;7.60;4.22;;;;;;;28.86;72.50;100667.40;1788496;80;21165;-60
2021/08/08 09:51:11;;;;;;;9.85;5.17;;;;;;;29.34;71.73;100661.76;1788392;80;21089;-60
2021/08/08 09:53:39;;;;;;;9.30;5.20;;;;;;;30.10;70.44;100658.38;1788657;80;21655;-59
2021/08/08 09:56:19;;;;;;;10.15;4.62;;;;;;;30.85;69.58;100663.05;1788616;80;21061;-59
2021/08/08 09:58:48;;;;;;;8.85;5.22;;;;;;;31.68;67.56;100673.36;1788537;80;21136;-59
2021/08/08 10:01:17;;;;;;;11.25;5.97;;;;;;;32.20;63.84;100669.75;1788449;80;21581;-60
2021/08/08 10:03:45;;;;;;;11.78;5.60;;;;;;;32.45;59.77;100678.23;1788068;80;21101;-70
2021/08/08 10:06:18;;;;;;;9.30;5.42;;;;;;;32.44;59.55;100679.25;1788384;80;21059;-68
2021/08/08 10:08:47;;;;;;;12.68;6.20;;;;;;;32.67;59.86;100689.30;1788737;80;21504;-63
2021/08/08 10:11:19;;;;;;;7.50;5.70;;;;;;;32.83;58.47;100689.45;1788325;80;21484;-62
2021/08/08 10:13:52;;;;;;;11.88;5.72;;;;;;;32.66;59.60;100695.79;1788222;80;21037;-69
2021/08/08 10:16:23;;;;;;;8.93;5.62;;;;;;;32.47;59.43;100697.93;1788224;80;21547;-68
2021/08/08 10:18:54;;;;;;;10.72;6.17;;;;;;;31.97;59.67;100700.02;1788563;80;21116;-68
2021/08/08 10:21:24;;;;;;;12.10;6.10;;;;;;;31.41;59.32;100690.85;1787546;80;21124;-63
2021/08/08 10:23:55;;;;;;;9.35;5.87;;;;;;;31.47;59.93;100700.10;1788569;80;21069;-59
2021/08/08 10:26:24;;;;;;;14.30;5.67;;;;;;;31.67;59.63;100694.30;1788580;80;21657;-60
2021/08/08 10:28:54;;;;;;;14.95;6.00;;;;;;;31.77;59.38;100698.02;1788494;80;21296;-59
2021/08/08 10:31:24;;;;;;;7.70;5.80;;;;;;;31.53;57.22;100692.00;1798521;78;21524;-59
2021/08/08 10:33:55;;;;;;;12.10;5.65;;;;;;;31.59;58.61;100689.53;1805359;79;21058;-59
2021/08/08 10:36:30;;;;;;;8.65;5.53;;;;;;;31.50;57.24;100681.53;1805353;79;21128;-59
2021/08/08 10:39:10;;;;;;;10.70;6.00;;;;;;;31.20;57.63;100675.93;1805218;79;21065;-60
2021/08/08 10:41:40;;;;;;;12.68;6.70;;;;;;;31.28;57.90;100672.55;1815081;78;21140;-59
2021/08/08 10:44:17;;;;;;;15.88;6.58;;;;;;;31.34;57.91;100671.75;1835114;78;21050;-59
2021/08/08 10:46:51;;;;;;;10.03;5.53;;;;;;;31.45;57.85;100669.00;1835143;78;21132;-59
2021/08/08 10:49:34;;;;;;;11.57;5.83;;;;;;;31.50;55.76;100673.87;1834395;78;21513;-60
2021/08/08 10:52:04;;;;;;;10.65;6.58;;;;;;;31.30;55.72;100675.91;1835211;78;21141;-60
2021/08/08 10:54:45;;;;;;;11.88;6.28;;;;;;;31.32;57.61;100674.36;1835097;78;21108;-60
2021/08/08 10:57:16;;;;;;;12.98;7.25;;;;;;;31.10;55.92;100675.75;1835074;78;21225;-60
2021/08/08 10:59:50;;;;;;;14.40;6.45;;;;;;;30.93;54.96;100681.13;1833898;78;21065;-67
2021/08/08 11:02:29;;;;;;;8.65;5.40;;;;;;;30.85;53.47;100682.60;1834998;78;21022;-66
2021/08/08 11:04:59;;;;;;;10.70;5.80;;;;;;;30.78;54.39;100696.98;1835098;78;21050;-66
2021/08/08 11:07:33;;;;;;;9.53;5.33;;;;;;;30.71;53.16;100708.30;1835057;78;21505;-66
2021/08/08 11:10:01;;;;;;;9.00;6.75;;;;;;;30.54;53.42;100709.06;1866258;77;21103;-65
2021/08/08 11:12:41;;;;;;;10.75;6.05;;;;;;;30.50;53.59;100717.77;1840725;77;21022;-65
2021/08/08 11:15:11;;;;;;;11.83;5.53;;;;;;;30.49;53.81;100710.64;1835103;78;21491;-64
2021/08/08 11:17:42;;;;;;;9.08;6.00;;;;;;;30.49;53.09;100717.44;1835058;78;21058;-64
2021/08/08 11:20:12;;;;;;;8.68;5.40;;;;;;;30.54;52.41;100713.62;1835102;78;21175;-64
2021/08/08 11:22:41;;;;;;;9.03;6.00;;;;;;;30.53;51.33;100712.80;1862245;77;21107;-60
2021/08/08 11:25:15;;;;;;;12.20;5.83;;;;;;;30.57;51.64;100714.61;1866455;77;21138;-62
2021/08/08 11:27:47;;;;;;;11.33;6.72;;;;;;;30.58;51.86;100717.64;1841993;77;21504;-64
2021/08/08 11:30:17;;;;;;;10.85;6.78;;;;;;;30.57;52.24;100713.25;1835143;78;21074;-61
2021/08/08 11:32:49;;;;;;;11.68;7.12;;;;;;;30.52;52.65;100713.81;1829559;77;21133;-63
2021/08/08 11:35:20;;;;;;;11.60;7.20;;;;;;;30.48;52.61;100711.69;1833506;78;21125;-63
2021/08/08 11:37:51;;;;;;;14.97;7.53;;;;;;;30.35;52.96;100716.45;1810593;78;21055;-64